sensor_id;sensor_type;location;lat;lon;timestamp;temperature;humidity
8424;DHT22;4249;49.072;9.770;2022-12-20T00:00:34;2.20;1.00
8424;DHT22;4249;49.072;9.770;2022-12-20T00:03:22;2.20;1.00
8424;DHT22;4249;49.072;9.770;2022-12-20T00:06:10;2.20;1.00
8424;DHT22;4249;49.072;9.770;2022-12-20T00:08:59;2.20;1.00
8424;DHT22;4249;49.072;9.770;2022-12-20T00:11:48;2.30;1.00
8424;DHT22;4249;49.072;9.770;2022-12-20T00:14:35;2.30;1.00
8424;DHT22;4249;49.072;9.770;2022-12-20T00:17:22;2.30;1.00
8424;DHT22;4249;49.072;9.770;2022-12-20T00:20:11;2.30;1.00
8424;DHT22;4249;49.072;9.770;2022-12-20T00:22:58;2.30;1.00
8424;DHT22;4249;49.072;9.770;2022-12-20T00:25:46;2.30;1.00
8424;DHT22;4249;49.072;9.770;2022-12-20T00:28:35;2.30;1.00
8424;DHT22;4249;49.072;9.770;2022-12-20T00:31:24;2.30;1.00
8424;DHT22;4249;49.072;9.770;2022-12-20T00:34:13;2.30;1.00
8424;DHT22;4249;49.072;9.770;2022-12-20T00:37:01;2.20;1.00
8424;DHT22;4249;49.072;9.770;2022-12-20T00:39:48;2.20;1.00
8424;DHT22;4249;49.072;9.770;2022-12-20T00:42:35;2.20;1.00
8424;DHT22;4249;49.072;9.770;2022-12-20T00:45:24;2.10;1.00
8424;DHT22;4249;49.072;9.770;2022-12-20T00:48:11;2.10;1.00
8424;DHT22;4249;49.072;9.770;2022-12-20T00:51:00;2.00;1.00
8424;DHT22;4249;49.072;9.770;2022-12-20T00:53:47;2.00;1.00
8424;DHT22;4249;49.072;9.770;2022-12-20T00:56:34;2.00;1.00
8424;DHT22;4249;49.072;9.770;2022-12-20T00:59:22;2.00;1.00
8424;DHT22;4249;49.072;9.770;2022-12-20T01:02:11;2.00;1.00
8424;DHT22;4249;49.072;9.770;2022-12-20T01:04:58;2.00;1.00
8424;DHT22;4249;49.072;9.770;2022-12-20T01:07:45;2.00;1.00
8424;DHT22;4249;49.072;9.770;2022-12-20T01:10:34;2.10;1.00
8424;DHT22;4249;49.072;9.770;2022-12-20T01:13:21;2.00;1.00
8424;DHT22;4249;49.072;9.770;2022-12-20T01:16:10;2.00;1.00
8424;DHT22;4249;49.072;9.770;2022-12-20T01:18:59;2.00;1.00
8424;DHT22;4249;49.072;9.770;2022-12-20T01:21:46;1.90;1.00
8424;DHT22;4249;49.072;9.770;2022-12-20T01:24:34;1.90;1.00
8424;DHT22;4249;49.072;9.770;2022-12-20T01:27:21;1.90;1.00
8424;DHT22;4249;49.072;9.770;2022-12-20T01:30:09;2.00;1.00
8424;DHT22;4249;49.072;9.770;2022-12-20T01:32:58;2.00;1.00
8424;DHT22;4249;49.072;9.770;2022-12-20T01:35:56;2.00;1.00
8424;DHT22;4249;49.072;9.770;2022-12-20T01:38:43;2.00;1.00
8424;DHT22;4249;49.072;9.770;2022-12-20T01:41:32;2.10;1.00
8424;DHT22;4249;49.072;9.770;2022-12-20T01:44:52;2.10;1.00
8424;DHT22;4249;49.072;9.770;2022-12-20T01:47:40;2.10;1.00
8424;DHT22;4249;49.072;9.770;2022-12-20T01:50:27;2.10;1.00
8424;DHT22;4249;49.072;9.770;2022-12-20T01:53:18;2.10;1.00
8424;DHT22;4249;49.072;9.770;2022-12-20T01:56:07;2.00;1.00
8424;DHT22;4249;49.072;9.770;2022-12-20T01:58:56;1.90;1.00
8424;DHT22;4249;49.072;9.770;2022-12-20T02:01:44;1.80;1.00
8424;DHT22;4249;49.072;9.770;2022-12-20T02:04:32;1.80;1.00
8424;DHT22;4249;49.072;9.770;2022-12-20T02:07:23;1.80;1.00
8424;DHT22;4249;49.072;9.770;2022-12-20T02:10:14;1.90;1.00
8424;DHT22;4249;49.072;9.770;2022-12-20T02:13:07;1.90;1.00
8424;DHT22;4249;49.072;9.770;2022-12-20T02:15:59;2.00;1.00
8424;DHT22;4249;49.072;9.770;2022-12-20T02:18:53;1.90;1.00
8424;DHT22;4249;49.072;9.770;2022-12-20T02:21:46;2.00;1.00
8424;DHT22;4249;49.072;9.770;2022-12-20T02:24:52;2.00;1.00
8424;DHT22;4249;49.072;9.770;2022-12-20T02:27:51;1.90;1.00
8424;DHT22;4249;49.072;9.770;2022-12-20T02:30:44;2.00;1.00
8424;DHT22;4249;49.072;9.770;2022-12-20T02:33:33;2.00;1.00
8424;DHT22;4249;49.072;9.770;2022-12-20T02:36:20;2.00;1.00
8424;DHT22;4249;49.072;9.770;2022-12-20T02:39:11;2.00;1.00
8424;DHT22;4249;49.072;9.770;2022-12-20T02:42:03;2.00;1.00
8424;DHT22;4249;49.072;9.770;2022-12-20T02:44:56;2.00;1.00
8424;DHT22;4249;49.072;9.770;2022-12-20T02:48:06;2.00;1.00
8424;DHT22;4249;49.072;9.770;2022-12-20T02:50:56;2.00;1.00
8424;DHT22;4249;49.072;9.770;2022-12-20T02:53:45;1.90;1.00
8424;DHT22;4249;49.072;9.770;2022-12-20T02:56:35;1.90;1.00
8424;DHT22;4249;49.072;9.770;2022-12-20T02:59:30;1.80;1.00
8424;DHT22;4249;49.072;9.770;2022-12-20T03:02:19;1.80;1.00
8424;DHT22;4249;49.072;9.770;2022-12-20T03:05:08;1.70;1.00
8424;DHT22;4249;49.072;9.770;2022-12-20T03:07:55;1.70;1.00
8424;DHT22;4249;49.072;9.770;2022-12-20T03:10:42;1.70;1.00
8424;DHT22;4249;49.072;9.770;2022-12-20T03:13:30;1.70;1.00
8424;DHT22;4249;49.072;9.770;2022-12-20T03:16:18;1.70;1.00
8424;DHT22;4249;49.072;9.770;2022-12-20T03:19:05;1.70;1.00
8424;DHT22;4249;49.072;9.770;2022-12-20T03:21:53;1.70;1.00
8424;DHT22;4249;49.072;9.770;2022-12-20T03:24:40;1.70;1.00
8424;DHT22;4249;49.072;9.770;2022-12-20T03:27:28;1.60;1.00
8424;DHT22;4249;49.072;9.770;2022-12-20T03:30:15;1.50;1.00
8424;DHT22;4249;49.072;9.770;2022-12-20T03:33:02;1.50;1.00
8424;DHT22;4249;49.072;9.770;2022-12-20T03:35:51;1.50;1.00
8424;DHT22;4249;49.072;9.770;2022-12-20T03:38:40;1.50;1.00
8424;DHT22;4249;49.072;9.770;2022-12-20T03:41:27;1.50;1.00
8424;DHT22;4249;49.072;9.770;2022-12-20T03:44:15;1.60;1.00
8424;DHT22;4249;49.072;9.770;2022-12-20T03:47:02;1.70;1.00
8424;DHT22;4249;49.072;9.770;2022-12-20T03:49:50;1.80;1.00
8424;DHT22;4249;49.072;9.770;2022-12-20T03:52:37;1.90;1.00
8424;DHT22;4249;49.072;9.770;2022-12-20T03:55:26;1.90;1.00
8424;DHT22;4249;49.072;9.770;2022-12-20T03:58:13;2.00;1.00
8424;DHT22;4249;49.072;9.770;2022-12-20T04:01:00;2.10;1.00
8424;DHT22;4249;49.072;9.770;2022-12-20T04:03:48;2.10;1.00
8424;DHT22;4249;49.072;9.770;2022-12-20T04:06:37;2.10;1.00
8424;DHT22;4249;49.072;9.770;2022-12-20T04:09:24;2.20;1.00
8424;DHT22;4249;49.072;9.770;2022-12-20T04:12:13;2.20;1.00
8424;DHT22;4249;49.072;9.770;2022-12-20T04:15:00;2.20;1.00
8424;DHT22;4249;49.072;9.770;2022-12-20T04:17:47;2.10;1.00
8424;DHT22;4249;49.072;9.770;2022-12-20T04:20:34;2.00;1.00
8424;DHT22;4249;49.072;9.770;2022-12-20T04:23:22;1.90;1.00
8424;DHT22;4249;49.072;9.770;2022-12-20T04:26:10;1.90;1.00
8424;DHT22;4249;49.072;9.770;2022-12-20T04:28:59;1.80;1.00
8424;DHT22;4249;49.072;9.770;2022-12-20T04:31:46;1.80;1.00
8424;DHT22;4249;49.072;9.770;2022-12-20T04:34:33;2.00;1.00
8424;DHT22;4249;49.072;9.770;2022-12-20T04:37:20;2.00;1.00
8424;DHT22;4249;49.072;9.770;2022-12-20T04:40:09;2.00;1.00
8424;DHT22;4249;49.072;9.770;2022-12-20T04:42:56;2.10;1.00
8424;DHT22;4249;49.072;9.770;2022-12-20T04:45:46;2.10;1.00
8424;DHT22;4249;49.072;9.770;2022-12-20T04:48:33;2.10;1.00
8424;DHT22;4249;49.072;9.770;2022-12-20T04:51:21;2.20;1.00
8424;DHT22;4249;49.072;9.770;2022-12-20T04:54:10;2.20;1.00
8424;DHT22;4249;49.072;9.770;2022-12-20T04:56:57;2.30;1.00
8424;DHT22;4249;49.072;9.770;2022-12-20T04:59:45;2.30;1.00
8424;DHT22;4249;49.072;9.770;2022-12-20T05:02:34;2.40;1.00
8424;DHT22;4249;49.072;9.770;2022-12-20T05:05:22;2.40;1.00
8424;DHT22;4249;49.072;9.770;2022-12-20T05:08:09;2.40;1.00
8424;DHT22;4249;49.072;9.770;2022-12-20T05:10:57;2.40;1.00
8424;DHT22;4249;49.072;9.770;2022-12-20T05:13:45;2.40;1.00
8424;DHT22;4249;49.072;9.770;2022-12-20T05:16:32;2.30;1.00
8424;DHT22;4249;49.072;9.770;2022-12-20T05:19:20;2.40;1.00
8424;DHT22;4249;49.072;9.770;2022-12-20T05:22:09;2.30;1.00
8424;DHT22;4249;49.072;9.770;2022-12-20T05:25:14;2.40;1.00
8424;DHT22;4249;49.072;9.770;2022-12-20T05:28:19;2.40;1.00
8424;DHT22;4249;49.072;9.770;2022-12-20T05:31:06;2.40;1.00
8424;DHT22;4249;49.072;9.770;2022-12-20T05:33:53;2.40;1.00
8424;DHT22;4249;49.072;9.770;2022-12-20T05:36:42;2.50;1.00
8424;DHT22;4249;49.072;9.770;2022-12-20T05:39:29;2.50;1.00
8424;DHT22;4249;49.072;9.770;2022-12-20T05:42:19;2.60;1.00
8424;DHT22;4249;49.072;9.770;2022-12-20T05:45:07;2.70;1.00
8424;DHT22;4249;49.072;9.770;2022-12-20T05:47:56;2.80;1.00
8424;DHT22;4249;49.072;9.770;2022-12-20T05:50:44;2.90;1.00
8424;DHT22;4249;49.072;9.770;2022-12-20T05:53:32;3.00;1.00
8424;DHT22;4249;49.072;9.770;2022-12-20T05:56:19;3.00;1.00
8424;DHT22;4249;49.072;9.770;2022-12-20T05:59:07;3.10;1.00
8424;DHT22;4249;49.072;9.770;2022-12-20T06:01:55;3.00;1.00
8424;DHT22;4249;49.072;9.770;2022-12-20T06:04:42;3.10;1.00
8424;DHT22;4249;49.072;9.770;2022-12-20T06:07:29;3.10;1.00
8424;DHT22;4249;49.072;9.770;2022-12-20T06:10:18;3.20;1.00
8424;DHT22;4249;49.072;9.770;2022-12-20T06:13:06;3.20;1.00
8424;DHT22;4249;49.072;9.770;2022-12-20T06:15:53;3.20;1.00
8424;DHT22;4249;49.072;9.770;2022-12-20T06:18:40;3.20;1.00
8424;DHT22;4249;49.072;9.770;2022-12-20T06:21:27;3.20;1.00
8424;DHT22;4249;49.072;9.770;2022-12-20T06:24:15;3.20;1.00
8424;DHT22;4249;49.072;9.770;2022-12-20T06:27:04;3.20;1.00
8424;DHT22;4249;49.072;9.770;2022-12-20T06:29:52;3.30;1.00
8424;DHT22;4249;49.072;9.770;2022-12-20T06:32:39;3.30;1.00
8424;DHT22;4249;49.072;9.770;2022-12-20T06:35:07;3.30;1.00
8424;DHT22;4249;49.072;9.770;2022-12-20T06:37:34;3.30;1.00
8424;DHT22;4249;49.072;9.770;2022-12-20T06:40:02;3.30;1.00
8424;DHT22;4249;49.072;9.770;2022-12-20T06:42:31;3.30;1.00
8424;DHT22;4249;49.072;9.770;2022-12-20T06:44:58;3.30;1.00
8424;DHT22;4249;49.072;9.770;2022-12-20T06:47:25;3.30;1.00
8424;DHT22;4249;49.072;9.770;2022-12-20T06:49:51;3.30;1.00
8424;DHT22;4249;49.072;9.770;2022-12-20T06:52:18;3.30;1.00
8424;DHT22;4249;49.072;9.770;2022-12-20T06:54:45;3.30;1.00
8424;DHT22;4249;49.072;9.770;2022-12-20T06:57:12;3.30;1.00
8424;DHT22;4249;49.072;9.770;2022-12-20T06:59:40;3.20;1.00
8424;DHT22;4249;49.072;9.770;2022-12-20T07:02:09;3.20;1.00
8424;DHT22;4249;49.072;9.770;2022-12-20T07:04:36;3.20;1.00
8424;DHT22;4249;49.072;9.770;2022-12-20T07:07:04;3.20;1.00
8424;DHT22;4249;49.072;9.770;2022-12-20T07:09:31;3.20;1.00
8424;DHT22;4249;49.072;9.770;2022-12-20T07:11:58;3.30;1.00
8424;DHT22;4249;49.072;9.770;2022-12-20T07:14:25;3.30;1.00
8424;DHT22;4249;49.072;9.770;2022-12-20T07:16:53;3.30;1.00
8424;DHT22;4249;49.072;9.770;2022-12-20T07:19:19;3.30;1.00
8424;DHT22;4249;49.072;9.770;2022-12-20T07:21:47;3.40;1.00
8424;DHT22;4249;49.072;9.770;2022-12-20T07:24:14;3.40;1.00
8424;DHT22;4249;49.072;9.770;2022-12-20T07:26:42;3.40;1.00
8424;DHT22;4249;49.072;9.770;2022-12-20T07:29:10;3.40;1.00
8424;DHT22;4249;49.072;9.770;2022-12-20T07:31:36;3.40;1.00
8424;DHT22;4249;49.072;9.770;2022-12-20T07:34:05;3.40;1.00
8424;DHT22;4249;49.072;9.770;2022-12-20T07:36:31;3.40;1.00
8424;DHT22;4249;49.072;9.770;2022-12-20T07:38:58;3.30;1.00
8424;DHT22;4249;49.072;9.770;2022-12-20T07:41:25;3.30;1.00
8424;DHT22;4249;49.072;9.770;2022-12-20T07:43:52;3.40;1.00
8424;DHT22;4249;49.072;9.770;2022-12-20T07:46:19;3.40;1.00
8424;DHT22;4249;49.072;9.770;2022-12-20T07:48:46;3.40;1.00
8424;DHT22;4249;49.072;9.770;2022-12-20T07:51:19;3.40;1.00
8424;DHT22;4249;49.072;9.770;2022-12-20T07:53:50;3.40;1.00
8424;DHT22;4249;49.072;9.770;2022-12-20T07:56:19;3.40;1.00
8424;DHT22;4249;49.072;9.770;2022-12-20T07:58:47;3.40;1.00
8424;DHT22;4249;49.072;9.770;2022-12-20T08:01:16;3.40;1.00
8424;DHT22;4249;49.072;9.770;2022-12-20T08:03:46;3.50;1.00
8424;DHT22;4249;49.072;9.770;2022-12-20T08:06:16;3.50;1.00
8424;DHT22;4249;49.072;9.770;2022-12-20T08:08:47;3.60;1.00
8424;DHT22;4249;49.072;9.770;2022-12-20T08:11:15;3.60;1.00
8424;DHT22;4249;49.072;9.770;2022-12-20T08:13:43;3.70;1.00
8424;DHT22;4249;49.072;9.770;2022-12-20T08:16:10;3.80;1.00
8424;DHT22;4249;49.072;9.770;2022-12-20T08:18:37;3.90;1.00
8424;DHT22;4249;49.072;9.770;2022-12-20T08:21:04;3.90;1.00
8424;DHT22;4249;49.072;9.770;2022-12-20T08:23:33;4.00;1.00
8424;DHT22;4249;49.072;9.770;2022-12-20T08:26:00;4.00;99.90
8424;DHT22;4249;49.072;9.770;2022-12-20T08:28:27;4.10;99.90
8424;DHT22;4249;49.072;9.770;2022-12-20T08:30:59;4.20;99.90
8424;DHT22;4249;49.072;9.770;2022-12-20T08:33:26;4.30;99.90
8424;DHT22;4249;49.072;9.770;2022-12-20T08:35:56;4.40;99.90
8424;DHT22;4249;49.072;9.770;2022-12-20T08:38:25;4.50;99.90
8424;DHT22;4249;49.072;9.770;2022-12-20T08:41:01;4.60;99.90
8424;DHT22;4249;49.072;9.770;2022-12-20T08:43:28;4.70;99.90
8424;DHT22;4249;49.072;9.770;2022-12-20T08:45:55;4.70;99.90
8424;DHT22;4249;49.072;9.770;2022-12-20T08:48:22;4.70;1.00
8424;DHT22;4249;49.072;9.770;2022-12-20T08:50:53;4.60;1.00
8424;DHT22;4249;49.072;9.770;2022-12-20T08:53:21;4.60;1.00
8424;DHT22;4249;49.072;9.770;2022-12-20T08:55:47;4.70;1.00
8424;DHT22;4249;49.072;9.770;2022-12-20T08:58:16;4.70;1.00
8424;DHT22;4249;49.072;9.770;2022-12-20T09:00:43;4.70;1.00
8424;DHT22;4249;49.072;9.770;2022-12-20T09:03:11;4.70;1.00
8424;DHT22;4249;49.072;9.770;2022-12-20T09:05:43;4.80;1.00
8424;DHT22;4249;49.072;9.770;2022-12-20T09:08:10;4.80;1.00
8424;DHT22;4249;49.072;9.770;2022-12-20T09:10:37;4.80;1.00
8424;DHT22;4249;49.072;9.770;2022-12-20T09:13:04;4.80;1.00
8424;DHT22;4249;49.072;9.770;2022-12-20T09:15:32;4.80;1.00
8424;DHT22;4249;49.072;9.770;2022-12-20T09:17:59;4.70;1.00
8424;DHT22;4249;49.072;9.770;2022-12-20T09:20:26;4.70;99.90
8424;DHT22;4249;49.072;9.770;2022-12-20T09:22:53;4.70;1.00
8424;DHT22;4249;49.072;9.770;2022-12-20T09:25:20;4.70;99.90
8424;DHT22;4249;49.072;9.770;2022-12-20T09:27:48;4.80;99.90
8424;DHT22;4249;49.072;9.770;2022-12-20T09:30:15;4.80;99.90
8424;DHT22;4249;49.072;9.770;2022-12-20T09:32:43;4.90;1.00
8424;DHT22;4249;49.072;9.770;2022-12-20T09:35:11;4.90;1.00
8424;DHT22;4249;49.072;9.770;2022-12-20T09:37:37;5.00;1.00
8424;DHT22;4249;49.072;9.770;2022-12-20T09:40:06;5.10;99.90
8424;DHT22;4249;49.072;9.770;2022-12-20T09:42:35;5.10;99.90
8424;DHT22;4249;49.072;9.770;2022-12-20T09:45:05;5.20;99.90
8424;DHT22;4249;49.072;9.770;2022-12-20T09:47:35;5.20;1.00
8424;DHT22;4249;49.072;9.770;2022-12-20T09:50:05;5.20;96.00
8424;DHT22;4249;49.072;9.770;2022-12-20T09:52:44;5.20;60.50
8424;DHT22;4249;49.072;9.770;2022-12-20T09:55:21;5.30;1.00
8424;DHT22;4249;49.072;9.770;2022-12-20T09:58:04;5.30;99.90
8424;DHT22;4249;49.072;9.770;2022-12-20T10:00:40;5.30;1.00
8424;DHT22;4249;49.072;9.770;2022-12-20T10:03:10;5.30;1.00
8424;DHT22;4249;49.072;9.770;2022-12-20T10:05:45;5.40;1.00
8424;DHT22;4249;49.072;9.770;2022-12-20T10:08:23;5.40;1.00
8424;DHT22;4249;49.072;9.770;2022-12-20T10:10:54;5.40;1.00
8424;DHT22;4249;49.072;9.770;2022-12-20T10:13:29;5.40;1.00
8424;DHT22;4249;49.072;9.770;2022-12-20T10:16:06;5.50;99.90
8424;DHT22;4249;49.072;9.770;2022-12-20T10:18:48;5.60;99.90
8424;DHT22;4249;49.072;9.770;2022-12-20T10:21:23;5.70;99.90
8424;DHT22;4249;49.072;9.770;2022-12-20T10:23:58;5.70;1.00
8424;DHT22;4249;49.072;9.770;2022-12-20T10:26:28;5.70;1.00
8424;DHT22;4249;49.072;9.770;2022-12-20T10:28:55;5.70;1.00
8424;DHT22;4249;49.072;9.770;2022-12-20T10:31:22;5.70;1.00
8424;DHT22;4249;49.072;9.770;2022-12-20T10:33:50;5.60;1.00
8424;DHT22;4249;49.072;9.770;2022-12-20T10:36:20;5.60;1.00
8424;DHT22;4249;49.072;9.770;2022-12-20T10:38:49;5.70;1.00
8424;DHT22;4249;49.072;9.770;2022-12-20T10:41:18;5.70;1.00
8424;DHT22;4249;49.072;9.770;2022-12-20T10:43:48;5.80;1.00
8424;DHT22;4249;49.072;9.770;2022-12-20T10:46:16;5.90;99.90
8424;DHT22;4249;49.072;9.770;2022-12-20T10:48:44;6.00;99.90
8424;DHT22;4249;49.072;9.770;2022-12-20T10:51:14;6.10;1.00
8424;DHT22;4249;49.072;9.770;2022-12-20T10:53:54;6.20;1.00
8424;DHT22;4249;49.072;9.770;2022-12-20T10:56:23;6.30;99.90
8424;DHT22;4249;49.072;9.770;2022-12-20T10:58:57;6.30;99.90
8424;DHT22;4249;49.072;9.770;2022-12-20T11:01:27;6.30;99.90
8424;DHT22;4249;49.072;9.770;2022-12-20T11:03:58;6.40;99.90
8424;DHT22;4249;49.072;9.770;2022-12-20T11:06:38;6.40;99.90
8424;DHT22;4249;49.072;9.770;2022-12-20T11:09:24;6.50;99.90
8424;DHT22;4249;49.072;9.770;2022-12-20T11:12:00;6.60;99.90
8424;DHT22;4249;49.072;9.770;2022-12-20T11:14:27;6.70;99.90
8424;DHT22;4249;49.072;9.770;2022-12-20T11:16:56;6.80;99.90
8424;DHT22;4249;49.072;9.770;2022-12-20T11:22:33;7.10;1.00
8424;DHT22;4249;49.072;9.770;2022-12-20T11:25:23;7.20;1.00
8424;DHT22;4249;49.072;9.770;2022-12-20T11:28:19;7.20;99.90
8424;DHT22;4249;49.072;9.770;2022-12-20T11:30:57;7.30;1.00
8424;DHT22;4249;49.072;9.770;2022-12-20T11:33:40;7.20;1.00
8424;DHT22;4249;49.072;9.770;2022-12-20T11:36:17;7.10;71.60
8424;DHT22;4249;49.072;9.770;2022-12-20T11:38:49;7.10;99.90
8424;DHT22;4249;49.072;9.770;2022-12-20T11:41:27;7.10;99.90
8424;DHT22;4249;49.072;9.770;2022-12-20T11:44:08;7.10;99.90
8424;DHT22;4249;49.072;9.770;2022-12-20T11:46:49;7.20;99.90
8424;DHT22;4249;49.072;9.770;2022-12-20T11:49:41;7.20;99.90
8424;DHT22;4249;49.072;9.770;2022-12-20T11:52:20;7.20;64.40
8424;DHT22;4249;49.072;9.770;2022-12-20T11:54:56;7.20;1.00
8424;DHT22;4249;49.072;9.770;2022-12-20T11:57:29;7.20;1.00
8424;DHT22;4249;49.072;9.770;2022-12-20T12:00:00;7.20;1.00
8424;DHT22;4249;49.072;9.770;2022-12-20T12:02:33;7.20;1.00
8424;DHT22;4249;49.072;9.770;2022-12-20T12:05:05;7.20;1.00
8424;DHT22;4249;49.072;9.770;2022-12-20T12:07:35;7.20;1.00
8424;DHT22;4249;49.072;9.770;2022-12-20T12:10:08;7.10;1.00
8424;DHT22;4249;49.072;9.770;2022-12-20T12:12:43;7.10;1.00
8424;DHT22;4249;49.072;9.770;2022-12-20T12:15:20;7.10;1.00
8424;DHT22;4249;49.072;9.770;2022-12-20T12:17:55;7.00;1.00
8424;DHT22;4249;49.072;9.770;2022-12-20T12:20:32;7.00;52.10
8424;DHT22;4249;49.072;9.770;2022-12-20T12:23:06;7.10;67.40
8424;DHT22;4249;49.072;9.770;2022-12-20T12:25:37;7.10;14.40
8424;DHT22;4249;49.072;9.770;2022-12-20T12:28:05;7.20;1.00
8424;DHT22;4249;49.072;9.770;2022-12-20T12:30:36;7.20;1.00
8424;DHT22;4249;49.072;9.770;2022-12-20T12:33:10;7.20;1.00
8424;DHT22;4249;49.072;9.770;2022-12-20T12:35:59;7.30;1.00
8424;DHT22;4249;49.072;9.770;2022-12-20T12:42:11;7.40;1.00
8424;DHT22;4249;49.072;9.770;2022-12-20T12:45:00;7.40;1.00
8424;DHT22;4249;49.072;9.770;2022-12-20T12:47:35;7.40;1.00
8424;DHT22;4249;49.072;9.770;2022-12-20T12:50:07;7.30;1.00
8424;DHT22;4249;49.072;9.770;2022-12-20T12:52:43;7.30;1.00
8424;DHT22;4249;49.072;9.770;2022-12-20T12:55:35;7.30;1.00
8424;DHT22;4249;49.072;9.770;2022-12-20T13:01:08;7.20;1.00
8424;DHT22;4249;49.072;9.770;2022-12-20T13:07:02;7.30;1.00
8424;DHT22;4249;49.072;9.770;2022-12-20T13:09:38;7.30;1.00
8424;DHT22;4249;49.072;9.770;2022-12-20T13:18:27;7.10;1.00
8424;DHT22;4249;49.072;9.770;2022-12-20T13:27:34;7.10;88.10
8424;DHT22;4249;49.072;9.770;2022-12-20T13:30:23;7.10;99.90
8424;DHT22;4249;49.072;9.770;2022-12-20T13:33:19;7.20;99.90
8424;DHT22;4249;49.072;9.770;2022-12-20T13:36:01;7.30;99.90
8424;DHT22;4249;49.072;9.770;2022-12-20T13:39:03;7.40;99.90
8424;DHT22;4249;49.072;9.770;2022-12-20T13:42:05;7.50;99.90
8424;DHT22;4249;49.072;9.770;2022-12-20T13:44:41;7.60;99.90
8424;DHT22;4249;49.072;9.770;2022-12-20T13:47:37;7.60;99.90
8424;DHT22;4249;49.072;9.770;2022-12-20T13:50:28;7.60;27.40
8424;DHT22;4249;49.072;9.770;2022-12-20T13:52:58;7.60;6.10
8424;DHT22;4249;49.072;9.770;2022-12-20T13:55:32;7.60;23.70
8424;DHT22;4249;49.072;9.770;2022-12-20T13:58:04;7.60;24.80
8424;DHT22;4249;49.072;9.770;2022-12-20T14:00:32;7.50;1.00
8424;DHT22;4249;49.072;9.770;2022-12-20T14:03:00;7.40;1.00
8424;DHT22;4249;49.072;9.770;2022-12-20T14:05:34;7.40;1.00
8424;DHT22;4249;49.072;9.770;2022-12-20T14:08:05;7.20;1.00
8424;DHT22;4249;49.072;9.770;2022-12-20T14:10:34;7.20;99.90
8424;DHT22;4249;49.072;9.770;2022-12-20T14:13:02;7.10;99.90
8424;DHT22;4249;49.072;9.770;2022-12-20T14:15:30;7.10;99.90
8424;DHT22;4249;49.072;9.770;2022-12-20T14:18:04;7.00;1.00
8424;DHT22;4249;49.072;9.770;2022-12-20T14:20:33;7.00;1.00
8424;DHT22;4249;49.072;9.770;2022-12-20T14:23:23;7.00;98.50
8424;DHT22;4249;49.072;9.770;2022-12-20T14:26:12;6.90;99.90
8424;DHT22;4249;49.072;9.770;2022-12-20T14:29:01;6.80;99.90
8424;DHT22;4249;49.072;9.770;2022-12-20T14:31:50;6.80;1.00
8424;DHT22;4249;49.072;9.770;2022-12-20T14:34:42;6.70;1.00
8424;DHT22;4249;49.072;9.770;2022-12-20T14:37:31;6.70;99.90
8424;DHT22;4249;49.072;9.770;2022-12-20T14:40:21;6.80;99.90
8424;DHT22;4249;49.072;9.770;2022-12-20T14:43:14;6.80;1.00
8424;DHT22;4249;49.072;9.770;2022-12-20T14:46:14;6.90;1.00
8424;DHT22;4249;49.072;9.770;2022-12-20T14:49:24;6.80;1.00
8424;DHT22;4249;49.072;9.770;2022-12-20T14:52:16;6.90;1.00
8424;DHT22;4249;49.072;9.770;2022-12-20T14:55:10;6.90;1.00
8424;DHT22;4249;49.072;9.770;2022-12-20T14:58:21;6.90;1.00
8424;DHT22;4249;49.072;9.770;2022-12-20T15:01:19;6.90;1.00
8424;DHT22;4249;49.072;9.770;2022-12-20T15:04:23;6.90;1.00
8424;DHT22;4249;49.072;9.770;2022-12-20T15:07:27;6.90;1.00
8424;DHT22;4249;49.072;9.770;2022-12-20T15:10:15;6.80;1.00
8424;DHT22;4249;49.072;9.770;2022-12-20T15:13:06;6.80;1.00
8424;DHT22;4249;49.072;9.770;2022-12-20T15:15:58;6.80;1.00
8424;DHT22;4249;49.072;9.770;2022-12-20T15:18:46;6.70;99.90
8424;DHT22;4249;49.072;9.770;2022-12-20T15:21:34;6.70;99.90
8424;DHT22;4249;49.072;9.770;2022-12-20T15:24:24;6.60;1.00
8424;DHT22;4249;49.072;9.770;2022-12-20T15:27:13;6.60;1.00
8424;DHT22;4249;49.072;9.770;2022-12-20T15:30:05;6.50;1.00
8424;DHT22;4249;49.072;9.770;2022-12-20T15:32:53;6.40;1.00
8424;DHT22;4249;49.072;9.770;2022-12-20T15:35:40;6.30;99.90
8424;DHT22;4249;49.072;9.770;2022-12-20T15:38:27;6.20;99.90
8424;DHT22;4249;49.072;9.770;2022-12-20T15:41:19;6.10;99.90
8424;DHT22;4249;49.072;9.770;2022-12-20T15:44:11;6.10;1.00
8424;DHT22;4249;49.072;9.770;2022-12-20T15:47:00;6.00;1.00
8424;DHT22;4249;49.072;9.770;2022-12-20T15:49:48;5.90;99.90
8424;DHT22;4249;49.072;9.770;2022-12-20T15:52:35;5.80;55.40
8424;DHT22;4249;49.072;9.770;2022-12-20T15:55:22;5.70;99.90
8424;DHT22;4249;49.072;9.770;2022-12-20T15:58:09;5.70;99.90
8424;DHT22;4249;49.072;9.770;2022-12-20T16:00:59;5.70;1.00
8424;DHT22;4249;49.072;9.770;2022-12-20T16:03:49;5.70;1.00
8424;DHT22;4249;49.072;9.770;2022-12-20T16:06:37;5.80;1.00
8424;DHT22;4249;49.072;9.770;2022-12-20T16:09:24;5.80;1.00
8424;DHT22;4249;49.072;9.770;2022-12-20T16:12:13;5.80;1.00
8424;DHT22;4249;49.072;9.770;2022-12-20T16:15:02;5.80;1.00
8424;DHT22;4249;49.072;9.770;2022-12-20T16:17:50;5.80;1.00
8424;DHT22;4249;49.072;9.770;2022-12-20T16:20:38;5.80;1.00
8424;DHT22;4249;49.072;9.770;2022-12-20T16:23:25;5.80;1.00
8424;DHT22;4249;49.072;9.770;2022-12-20T16:26:15;5.80;1.00
8424;DHT22;4249;49.072;9.770;2022-12-20T16:29:02;5.90;1.00
8424;DHT22;4249;49.072;9.770;2022-12-20T16:31:49;5.90;1.00
8424;DHT22;4249;49.072;9.770;2022-12-20T16:34:37;5.90;1.00
8424;DHT22;4249;49.072;9.770;2022-12-20T16:37:26;5.90;1.00
8424;DHT22;4249;49.072;9.770;2022-12-20T16:40:13;5.80;1.00
8424;DHT22;4249;49.072;9.770;2022-12-20T16:43:01;5.90;1.00
8424;DHT22;4249;49.072;9.770;2022-12-20T16:45:48;5.90;1.00
8424;DHT22;4249;49.072;9.770;2022-12-20T16:48:37;5.90;1.00
8424;DHT22;4249;49.072;9.770;2022-12-20T16:51:26;5.90;1.00
8424;DHT22;4249;49.072;9.770;2022-12-20T16:54:18;5.90;1.00
8424;DHT22;4249;49.072;9.770;2022-12-20T16:57:07;6.00;1.00
8424;DHT22;4249;49.072;9.770;2022-12-20T16:59:55;6.00;1.00
8424;DHT22;4249;49.072;9.770;2022-12-20T17:02:42;6.00;1.00
8424;DHT22;4249;49.072;9.770;2022-12-20T17:05:33;6.10;1.00
8424;DHT22;4249;49.072;9.770;2022-12-20T17:08:21;6.10;99.90
8424;DHT22;4249;49.072;9.770;2022-12-20T17:11:13;6.10;99.90
8424;DHT22;4249;49.072;9.770;2022-12-20T17:14:00;6.10;99.90
8424;DHT22;4249;49.072;9.770;2022-12-20T17:16:48;6.00;99.90
8424;DHT22;4249;49.072;9.770;2022-12-20T17:19:35;5.90;84.80
8424;DHT22;4249;49.072;9.770;2022-12-20T17:22:22;5.90;99.90
8424;DHT22;4249;49.072;9.770;2022-12-20T17:25:21;5.80;99.90
8424;DHT22;4249;49.072;9.770;2022-12-20T17:28:10;5.80;99.90
8424;DHT22;4249;49.072;9.770;2022-12-20T17:30:57;5.70;99.90
8424;DHT22;4249;49.072;9.770;2022-12-20T17:33:45;5.70;99.90
8424;DHT22;4249;49.072;9.770;2022-12-20T17:36:32;5.60;1.00
8424;DHT22;4249;49.072;9.770;2022-12-20T17:39:19;5.50;1.00
8424;DHT22;4249;49.072;9.770;2022-12-20T17:42:08;5.50;99.90
8424;DHT22;4249;49.072;9.770;2022-12-20T17:44:58;5.50;1.00
8424;DHT22;4249;49.072;9.770;2022-12-20T17:47:46;5.60;1.00
8424;DHT22;4249;49.072;9.770;2022-12-20T17:50:33;5.60;1.00
8424;DHT22;4249;49.072;9.770;2022-12-20T17:53:20;5.60;1.00
8424;DHT22;4249;49.072;9.770;2022-12-20T17:56:10;5.70;1.00
8424;DHT22;4249;49.072;9.770;2022-12-20T17:59:00;5.70;1.00
8424;DHT22;4249;49.072;9.770;2022-12-20T18:01:48;5.80;1.00
8424;DHT22;4249;49.072;9.770;2022-12-20T18:04:36;5.90;1.00
8424;DHT22;4249;49.072;9.770;2022-12-20T18:07:23;5.80;1.00
8424;DHT22;4249;49.072;9.770;2022-12-20T18:10:10;5.90;1.00
8424;DHT22;4249;49.072;9.770;2022-12-20T18:12:57;5.90;1.00
8424;DHT22;4249;49.072;9.770;2022-12-20T18:15:44;5.90;1.00
8424;DHT22;4249;49.072;9.770;2022-12-20T18:18:33;5.90;1.00
8424;DHT22;4249;49.072;9.770;2022-12-20T18:21:22;6.00;1.00
8424;DHT22;4249;49.072;9.770;2022-12-20T18:24:10;5.90;1.00
8424;DHT22;4249;49.072;9.770;2022-12-20T18:26:58;6.00;1.00
8424;DHT22;4249;49.072;9.770;2022-12-20T18:29:45;6.00;1.00
8424;DHT22;4249;49.072;9.770;2022-12-20T18:32:32;6.00;1.00
8424;DHT22;4249;49.072;9.770;2022-12-20T18:35:21;6.10;1.00